sensor_id;sensor_type;location;lat;lon;timestamp;P1;durP1;ratioP1;P2;durP2;ratioP2
52268;SDS011;38224;50.950;4.100;2023-01-10T00:00:30;29.13;;;4.78;;
52268;SDS011;38224;50.950;4.100;2023-01-10T00:03:05;22.05;;;4.50;;
52268;SDS011;38224;50.950;4.100;2023-01-10T00:05:31;25.00;;;4.13;;
52268;SDS011;38224;50.950;4.100;2023-01-10T00:07:57;22.92;;;4.38;;
52268;SDS011;38224;50.950;4.100;2023-01-10T00:10:23;25.65;;;3.97;;
52268;SDS011;38224;50.950;4.100;2023-01-10T00:12:48;19.83;;;3.95;;
52268;SDS011;38224;50.950;4.100;2023-01-10T00:15:32;19.70;;;4.22;;
52268;SDS011;38224;50.950;4.100;2023-01-10T00:17:58;22.42;;;4.22;;
52268;SDS011;38224;50.950;4.100;2023-01-10T00:20:23;24.20;;;4.63;;
52268;SDS011;38224;50.950;4.100;2023-01-10T00:22:48;24.95;;;4.70;;
52268;SDS011;38224;50.950;4.100;2023-01-10T00:25:14;23.40;;;5.15;;
52268;SDS011;38224;50.950;4.100;2023-01-10T00:27:40;30.40;;;4.45;;
52268;SDS011;38224;50.950;4.100;2023-01-10T00:30:06;31.80;;;5.72;;
52268;SDS011;38224;50.950;4.100;2023-01-10T00:32:39;25.58;;;4.68;;
52268;SDS011;38224;50.950;4.100;2023-01-10T00:35:04;26.70;;;4.40;;
52268;SDS011;38224;50.950;4.100;2023-01-10T00:37:30;24.02;;;4.35;;
52268;SDS011;38224;50.950;4.100;2023-01-10T00:39:56;23.15;;;4.95;;
52268;SDS011;38224;50.950;4.100;2023-01-10T00:42:21;22.00;;;4.45;;
52268;SDS011;38224;50.950;4.100;2023-01-10T00:45:05;22.80;;;5.25;;
52268;SDS011;38224;50.950;4.100;2023-01-10T00:47:30;24.77;;;4.53;;
52268;SDS011;38224;50.950;4.100;2023-01-10T00:49:56;25.77;;;5.13;;
52268;SDS011;38224;50.950;4.100;2023-01-10T00:52:21;38.03;;;5.37;;
52268;SDS011;38224;50.950;4.100;2023-01-10T00:54:46;25.67;;;4.73;;
52268;SDS011;38224;50.950;4.100;2023-01-10T00:57:11;23.67;;;5.43;;
52268;SDS011;38224;50.950;4.100;2023-01-10T00:59:36;28.00;;;5.67;;
52268;SDS011;38224;50.950;4.100;2023-01-10T01:02:02;22.33;;;5.35;;
52268;SDS011;38224;50.950;4.100;2023-01-10T01:04:27;28.93;;;4.93;;
52268;SDS011;38224;50.950;4.100;2023-01-10T01:06:57;38.78;;;6.03;;
52268;SDS011;38224;50.950;4.100;2023-01-10T01:09:23;32.63;;;5.28;;
52268;SDS011;38224;50.950;4.100;2023-01-10T01:11:48;33.60;;;4.63;;
52268;SDS011;38224;50.950;4.100;2023-01-10T01:14:13;38.85;;;5.65;;
52268;SDS011;38224;50.950;4.100;2023-01-10T01:16:39;28.85;;;5.07;;
52268;SDS011;38224;50.950;4.100;2023-01-10T01:19:04;24.73;;;4.68;;
52268;SDS011;38224;50.950;4.100;2023-01-10T01:21:29;28.92;;;4.85;;
52268;SDS011;38224;50.950;4.100;2023-01-10T01:23:54;35.20;;;4.73;;
52268;SDS011;38224;50.950;4.100;2023-01-10T01:26:23;25.73;;;5.03;;
52268;SDS011;38224;50.950;4.100;2023-01-10T01:28:49;38.70;;;5.45;;
52268;SDS011;38224;50.950;4.100;2023-01-10T01:31:14;28.67;;;4.70;;
52268;SDS011;38224;50.950;4.100;2023-01-10T01:33:39;25.40;;;4.97;;
52268;SDS011;38224;50.950;4.100;2023-01-10T01:36:08;31.08;;;4.40;;
52268;SDS011;38224;50.950;4.100;2023-01-10T01:38:34;28.88;;;4.75;;
52268;SDS011;38224;50.950;4.100;2023-01-10T01:40:59;28.92;;;5.15;;
52268;SDS011;38224;50.950;4.100;2023-01-10T01:43:25;34.83;;;5.53;;
52268;SDS011;38224;50.950;4.100;2023-01-10T01:45:51;29.55;;;5.00;;
52268;SDS011;38224;50.950;4.100;2023-01-10T01:53:30;27.73;;;4.80;;
52268;SDS011;38224;50.950;4.100;2023-01-10T01:55:58;32.97;;;4.97;;
52268;SDS011;38224;50.950;4.100;2023-01-10T01:58:26;35.85;;;5.07;;
52268;SDS011;38224;50.950;4.100;2023-01-10T02:00:53;32.17;;;5.57;;
52268;SDS011;38224;50.950;4.100;2023-01-10T02:03:18;39.13;;;5.10;;
52268;SDS011;38224;50.950;4.100;2023-01-10T02:05:43;28.13;;;6.05;;
52268;SDS011;38224;50.950;4.100;2023-01-10T02:08:09;38.22;;;5.22;;
52268;SDS011;38224;50.950;4.100;2023-01-10T02:10:45;40.60;;;6.18;;
52268;SDS011;38224;50.950;4.100;2023-01-10T02:13:13;27.90;;;4.57;;
52268;SDS011;38224;50.950;4.100;2023-01-10T02:15:39;34.78;;;6.05;;
52268;SDS011;38224;50.950;4.100;2023-01-10T02:18:04;30.83;;;5.73;;
52268;SDS011;38224;50.950;4.100;2023-01-10T02:20:32;30.33;;;4.47;;
52268;SDS011;38224;50.950;4.100;2023-01-10T02:23:12;28.20;;;5.25;;
52268;SDS011;38224;50.950;4.100;2023-01-10T02:33:45;40.88;;;5.30;;
52268;SDS011;38224;50.950;4.100;2023-01-10T02:43:41;33.30;;;4.72;;
52268;SDS011;38224;50.950;4.100;2023-01-10T02:46:14;47.15;;;5.68;;
52268;SDS011;38224;50.950;4.100;2023-01-10T02:48:41;34.03;;;5.47;;
52268;SDS011;38224;50.950;4.100;2023-01-10T02:51:16;41.83;;;6.40;;
52268;SDS011;38224;50.950;4.100;2023-01-10T02:53:53;36.85;;;6.25;;
52268;SDS011;38224;50.950;4.100;2023-01-10T03:04:21;35.53;;;5.38;;
52268;SDS011;38224;50.950;4.100;2023-01-10T03:06:53;39.83;;;6.10;;
52268;SDS011;38224;50.950;4.100;2023-01-10T03:11:45;34.97;;;5.15;;
52268;SDS011;38224;50.950;4.100;2023-01-10T03:14:15;42.80;;;6.60;;
52268;SDS011;38224;50.950;4.100;2023-01-10T03:16:43;36.80;;;5.50;;
52268;SDS011;38224;50.950;4.100;2023-01-10T03:19:09;36.90;;;5.43;;
52268;SDS011;38224;50.950;4.100;2023-01-10T03:21:36;36.67;;;5.68;;
52268;SDS011;38224;50.950;4.100;2023-01-10T03:24:05;35.67;;;6.07;;
52268;SDS011;38224;50.950;4.100;2023-01-10T03:26:36;46.90;;;6.30;;
52268;SDS011;38224;50.950;4.100;2023-01-10T03:29:05;31.98;;;5.50;;
52268;SDS011;38224;50.950;4.100;2023-01-10T03:32:05;39.72;;;5.80;;
52268;SDS011;38224;50.950;4.100;2023-01-10T03:34:23;43.35;;;5.22;;
52268;SDS011;38224;50.950;4.100;2023-01-10T03:36:51;35.35;;;6.32;;
52268;SDS011;38224;50.950;4.100;2023-01-10T03:39:25;40.10;;;5.57;;
52268;SDS011;38224;50.950;4.100;2023-01-10T03:49:41;39.72;;;5.72;;
52268;SDS011;38224;50.950;4.100;2023-01-10T03:52:08;29.52;;;6.07;;
52268;SDS011;38224;50.950;4.100;2023-01-10T03:54:34;36.40;;;5.32;;
52268;SDS011;38224;50.950;4.100;2023-01-10T03:57:00;42.75;;;6.03;;
52268;SDS011;38224;50.950;4.100;2023-01-10T03:59:25;47.92;;;6.78;;
52268;SDS011;38224;50.950;4.100;2023-01-10T04:01:51;37.15;;;5.53;;
52268;SDS011;38224;50.950;4.100;2023-01-10T04:04:17;44.97;;;6.70;;
52268;SDS011;38224;50.950;4.100;2023-01-10T04:06:42;39.88;;;5.47;;
52268;SDS011;38224;50.950;4.100;2023-01-10T04:09:07;46.35;;;6.57;;
52268;SDS011;38224;50.950;4.100;2023-01-10T04:11:33;35.65;;;5.85;;
52268;SDS011;38224;50.950;4.100;2023-01-10T04:13:58;36.65;;;6.30;;
52268;SDS011;38224;50.950;4.100;2023-01-10T04:16:23;45.20;;;6.27;;
52268;SDS011;38224;50.950;4.100;2023-01-10T04:18:49;48.60;;;5.93;;
52268;SDS011;38224;50.950;4.100;2023-01-10T04:21:14;43.25;;;5.95;;
52268;SDS011;38224;50.950;4.100;2023-01-10T04:23:39;48.95;;;5.20;;
52268;SDS011;38224;50.950;4.100;2023-01-10T04:26:05;45.67;;;6.07;;
52268;SDS011;38224;50.950;4.100;2023-01-10T04:28:30;37.90;;;6.47;;
52268;SDS011;38224;50.950;4.100;2023-01-10T04:30:55;51.90;;;5.83;;
52268;SDS011;38224;50.950;4.100;2023-01-10T04:33:20;41.53;;;5.27;;
52268;SDS011;38224;50.950;4.100;2023-01-10T04:35:47;54.08;;;7.10;;
52268;SDS011;38224;50.950;4.100;2023-01-10T04:38:12;33.20;;;7.40;;
52268;SDS011;38224;50.950;4.100;2023-01-10T04:40:37;33.42;;;5.40;;
52268;SDS011;38224;50.950;4.100;2023-01-10T04:43:02;43.47;;;7.27;;
52268;SDS011;38224;50.950;4.100;2023-01-10T04:45:28;35.45;;;6.50;;
52268;SDS011;38224;50.950;4.100;2023-01-10T04:47:53;40.92;;;5.25;;
52268;SDS011;38224;50.950;4.100;2023-01-10T04:50:20;44.25;;;6.57;;
52268;SDS011;38224;50.950;4.100;2023-01-10T04:52:45;37.20;;;6.15;;
52268;SDS011;38224;50.950;4.100;2023-01-10T04:55:11;45.67;;;7.83;;
52268;SDS011;38224;50.950;4.100;2023-01-10T04:57:36;41.78;;;6.20;;
52268;SDS011;38224;50.950;4.100;2023-01-10T05:00:01;42.55;;;5.97;;
52268;SDS011;38224;50.950;4.100;2023-01-10T05:02:27;45.30;;;6.68;;
52268;SDS011;38224;50.950;4.100;2023-01-10T05:04:52;39.43;;;6.73;;
52268;SDS011;38224;50.950;4.100;2023-01-10T05:07:17;48.50;;;7.90;;
52268;SDS011;38224;50.950;4.100;2023-01-10T05:09:42;36.07;;;6.93;;
52268;SDS011;38224;50.950;4.100;2023-01-10T05:12:08;36.30;;;5.70;;
52268;SDS011;38224;50.950;4.100;2023-01-10T05:14:33;43.50;;;7.13;;
52268;SDS011;38224;50.950;4.100;2023-01-10T05:16:58;45.63;;;5.75;;
52268;SDS011;38224;50.950;4.100;2023-01-10T05:19:23;50.45;;;6.30;;
52268;SDS011;38224;50.950;4.100;2023-01-10T05:21:49;42.13;;;6.43;;
52268;SDS011;38224;50.950;4.100;2023-01-10T05:24:16;41.72;;;6.20;;
52268;SDS011;38224;50.950;4.100;2023-01-10T05:26:41;45.45;;;6.22;;
52268;SDS011;38224;50.950;4.100;2023-01-10T05:29:08;36.65;;;6.82;;
52268;SDS011;38224;50.950;4.100;2023-01-10T05:31:34;29.70;;;5.43;;
52268;SDS011;38224;50.950;4.100;2023-01-10T05:34:00;39.67;;;5.30;;
52268;SDS011;38224;50.950;4.100;2023-01-10T05:36:25;33.42;;;6.45;;
52268;SDS011;38224;50.950;4.100;2023-01-10T05:38:50;42.43;;;7.87;;
52268;SDS011;38224;50.950;4.100;2023-01-10T05:41:15;50.15;;;7.47;;
52268;SDS011;38224;50.950;4.100;2023-01-10T05:43:41;41.22;;;6.90;;
52268;SDS011;38224;50.950;4.100;2023-01-10T05:46:06;36.00;;;6.15;;
52268;SDS011;38224;50.950;4.100;2023-01-10T05:48:31;37.38;;;6.35;;
52268;SDS011;38224;50.950;4.100;2023-01-10T05:50:57;37.90;;;5.97;;
52268;SDS011;38224;50.950;4.100;2023-01-10T05:53:22;48.97;;;5.95;;
52268;SDS011;38224;50.950;4.100;2023-01-10T05:55:57;40.00;;;5.55;;
52268;SDS011;38224;50.950;4.100;2023-01-10T05:58:23;40.00;;;5.65;;
52268;SDS011;38224;50.950;4.100;2023-01-10T06:00:48;55.70;;;7.57;;
52268;SDS011;38224;50.950;4.100;2023-01-10T06:03:14;45.90;;;7.28;;
52268;SDS011;38224;50.950;4.100;2023-01-10T06:05:39;41.35;;;6.25;;
52268;SDS011;38224;50.950;4.100;2023-01-10T06:08:04;35.00;;;5.88;;
52268;SDS011;38224;50.950;4.100;2023-01-10T06:10:29;29.25;;;5.90;;
52268;SDS011;38224;50.950;4.100;2023-01-10T06:12:55;47.50;;;6.40;;
52268;SDS011;38224;50.950;4.100;2023-01-10T06:15:20;34.05;;;5.55;;
52268;SDS011;38224;50.950;4.100;2023-01-10T06:17:46;38.60;;;6.55;;
52268;SDS011;38224;50.950;4.100;2023-01-10T06:20:11;36.75;;;5.75;;
52268;SDS011;38224;50.950;4.100;2023-01-10T06:22:38;34.03;;;5.15;;
52268;SDS011;38224;50.950;4.100;2023-01-10T06:25:03;38.28;;;5.93;;
52268;SDS011;38224;50.950;4.100;2023-01-10T06:27:29;39.50;;;6.03;;
52268;SDS011;38224;50.950;4.100;2023-01-10T06:29:54;51.80;;;6.97;;
52268;SDS011;38224;50.950;4.100;2023-01-10T06:32:19;34.70;;;5.57;;
52268;SDS011;38224;50.950;4.100;2023-01-10T06:34:45;39.70;;;4.97;;
52268;SDS011;38224;50.950;4.100;2023-01-10T06:37:10;33.25;;;6.30;;
52268;SDS011;38224;50.950;4.100;2023-01-10T06:39:35;39.43;;;5.03;;
52268;SDS011;38224;50.950;4.100;2023-01-10T06:42:00;31.58;;;5.10;;
52268;SDS011;38224;50.950;4.100;2023-01-10T06:44:26;34.53;;;5.73;;
52268;SDS011;38224;50.950;4.100;2023-01-10T06:46:51;47.27;;;5.30;;
52268;SDS011;38224;50.950;4.100;2023-01-10T06:49:16;31.63;;;5.37;;
52268;SDS011;38224;50.950;4.100;2023-01-10T06:51:41;49.13;;;6.07;;
52268;SDS011;38224;50.950;4.100;2023-01-10T06:54:07;32.72;;;6.75;;
52268;SDS011;38224;50.950;4.100;2023-01-10T06:56:32;37.40;;;6.87;;
52268;SDS011;38224;50.950;4.100;2023-01-10T06:58:57;38.17;;;5.97;;
52268;SDS011;38224;50.950;4.100;2023-01-10T07:01:22;43.70;;;7.22;;
52268;SDS011;38224;50.950;4.100;2023-01-10T07:03:48;42.38;;;6.40;;
52268;SDS011;38224;50.950;4.100;2023-01-10T07:06:13;40.87;;;5.97;;
52268;SDS011;38224;50.950;4.100;2023-01-10T07:08:39;30.48;;;4.57;;
52268;SDS011;38224;50.950;4.100;2023-01-10T07:11:05;27.98;;;5.13;;
52268;SDS011;38224;50.950;4.100;2023-01-10T07:13:30;30.75;;;5.25;;
52268;SDS011;38224;50.950;4.100;2023-01-10T07:16:09;29.85;;;6.57;;
52268;SDS011;38224;50.950;4.100;2023-01-10T07:18:35;39.05;;;5.18;;
52268;SDS011;38224;50.950;4.100;2023-01-10T07:21:00;32.60;;;5.63;;
52268;SDS011;38224;50.950;4.100;2023-01-10T07:23:25;35.33;;;5.03;;
52268;SDS011;38224;50.950;4.100;2023-01-10T07:25:51;27.33;;;4.90;;
52268;SDS011;38224;50.950;4.100;2023-01-10T07:28:16;34.92;;;4.55;;
52268;SDS011;38224;50.950;4.100;2023-01-10T07:30:41;41.05;;;5.43;;
52268;SDS011;38224;50.950;4.100;2023-01-10T07:33:07;32.13;;;4.90;;
52268;SDS011;38224;50.950;4.100;2023-01-10T07:35:32;33.27;;;5.80;;
52268;SDS011;38224;50.950;4.100;2023-01-10T07:37:57;27.55;;;6.10;;
52268;SDS011;38224;50.950;4.100;2023-01-10T07:40:23;35.28;;;4.97;;
52268;SDS011;38224;50.950;4.100;2023-01-10T07:42:48;43.03;;;6.40;;
52268;SDS011;38224;50.950;4.100;2023-01-10T07:45:14;41.80;;;5.63;;
52268;SDS011;38224;50.950;4.100;2023-01-10T07:47:39;33.55;;;6.38;;
52268;SDS011;38224;50.950;4.100;2023-01-10T07:50:04;40.77;;;5.73;;
52268;SDS011;38224;50.950;4.100;2023-01-10T07:52:31;30.10;;;6.78;;
52268;SDS011;38224;50.950;4.100;2023-01-10T07:54:56;30.23;;;5.20;;
52268;SDS011;38224;50.950;4.100;2023-01-10T07:57:21;33.80;;;6.23;;
52268;SDS011;38224;50.950;4.100;2023-01-10T07:59:47;30.08;;;5.35;;
52268;SDS011;38224;50.950;4.100;2023-01-10T08:02:12;35.30;;;6.33;;
52268;SDS011;38224;50.950;4.100;2023-01-10T08:04:37;28.75;;;4.95;;
52268;SDS011;38224;50.950;4.100;2023-01-10T08:07:03;35.47;;;6.18;;
52268;SDS011;38224;50.950;4.100;2023-01-10T08:09:28;46.65;;;6.28;;
52268;SDS011;38224;50.950;4.100;2023-01-10T08:11:53;30.20;;;5.63;;
52268;SDS011;38224;50.950;4.100;2023-01-10T08:14:19;28.83;;;5.70;;
52268;SDS011;38224;50.950;4.100;2023-01-10T08:16:44;33.53;;;6.00;;
52268;SDS011;38224;50.950;4.100;2023-01-10T08:19:10;39.88;;;5.35;;
52268;SDS011;38224;50.950;4.100;2023-01-10T08:21:39;26.48;;;4.40;;
52268;SDS011;38224;50.950;4.100;2023-01-10T08:24:04;29.33;;;6.40;;
52268;SDS011;38224;50.950;4.100;2023-01-10T08:26:29;26.75;;;5.10;;
52268;SDS011;38224;50.950;4.100;2023-01-10T08:28:55;37.40;;;5.82;;
52268;SDS011;38224;50.950;4.100;2023-01-10T08:31:20;22.40;;;5.32;;
52268;SDS011;38224;50.950;4.100;2023-01-10T08:33:45;36.47;;;5.85;;
52268;SDS011;38224;50.950;4.100;2023-01-10T08:36:17;30.37;;;5.30;;
52268;SDS011;38224;50.950;4.100;2023-01-10T08:38:43;31.27;;;5.10;;
52268;SDS011;38224;50.950;4.100;2023-01-10T08:41:08;35.70;;;6.00;;
52268;SDS011;38224;50.950;4.100;2023-01-10T08:43:33;38.00;;;6.22;;
52268;SDS011;38224;50.950;4.100;2023-01-10T08:45:58;36.33;;;5.43;;
52268;SDS011;38224;50.950;4.100;2023-01-10T08:48:24;32.80;;;5.27;;
52268;SDS011;38224;50.950;4.100;2023-01-10T08:50:49;30.63;;;4.67;;
52268;SDS011;38224;50.950;4.100;2023-01-10T08:53:14;33.90;;;5.40;;
52268;SDS011;38224;50.950;4.100;2023-01-10T08:55:40;28.67;;;5.53;;
52268;SDS011;38224;50.950;4.100;2023-01-10T08:58:05;48.28;;;7.40;;
52268;SDS011;38224;50.950;4.100;2023-01-10T09:00:30;33.30;;;4.75;;
52268;SDS011;38224;50.950;4.100;2023-01-10T09:02:56;35.45;;;5.03;;
52268;SDS011;38224;50.950;4.100;2023-01-10T09:05:22;35.08;;;6.47;;
52268;SDS011;38224;50.950;4.100;2023-01-10T09:07:49;34.38;;;6.13;;
52268;SDS011;38224;50.950;4.100;2023-01-10T09:10:15;30.27;;;5.30;;
52268;SDS011;38224;50.950;4.100;2023-01-10T09:12:40;32.17;;;6.38;;
52268;SDS011;38224;50.950;4.100;2023-01-10T09:15:31;32.88;;;6.30;;
52268;SDS011;38224;50.950;4.100;2023-01-10T09:17:57;32.80;;;5.28;;
52268;SDS011;38224;50.950;4.100;2023-01-10T09:20:23;27.75;;;6.65;;
52268;SDS011;38224;50.950;4.100;2023-01-10T09:22:49;26.50;;;5.45;;
52268;SDS011;38224;50.950;4.100;2023-01-10T09:25:14;38.47;;;5.82;;
52268;SDS011;38224;50.950;4.100;2023-01-10T09:27:39;26.17;;;4.78;;
52268;SDS011;38224;50.950;4.100;2023-01-10T09:30:05;35.78;;;6.57;;
52268;SDS011;38224;50.950;4.100;2023-01-10T09:32:31;40.83;;;6.10;;
52268;SDS011;38224;50.950;4.100;2023-01-10T09:34:57;34.95;;;6.40;;
52268;SDS011;38224;50.950;4.100;2023-01-10T09:37:22;34.58;;;6.18;;
52268;SDS011;38224;50.950;4.100;2023-01-10T09:39:48;31.13;;;5.37;;
52268;SDS011;38224;50.950;4.100;2023-01-10T09:45:01;32.47;;;5.63;;
52268;SDS011;38224;50.950;4.100;2023-01-10T09:52:27;31.88;;;5.32;;
52268;SDS011;38224;50.950;4.100;2023-01-10T09:54:54;27.75;;;5.60;;
52268;SDS011;38224;50.950;4.100;2023-01-10T09:57:21;22.77;;;4.57;;
52268;SDS011;38224;50.950;4.100;2023-01-10T09:59:47;35.58;;;5.90;;
52268;SDS011;38224;50.950;4.100;2023-01-10T10:02:18;35.72;;;5.40;;
52268;SDS011;38224;50.950;4.100;2023-01-10T10:04:51;31.73;;;4.55;;
52268;SDS011;38224;50.950;4.100;2023-01-10T10:07:19;29.70;;;5.07;;
52268;SDS011;38224;50.950;4.100;2023-01-10T10:09:44;35.70;;;5.80;;
52268;SDS011;38224;50.950;4.100;2023-01-10T10:12:18;25.70;;;6.73;;
52268;SDS011;38224;50.950;4.100;2023-01-10T10:35:41;31.20;;;5.40;;
52268;SDS011;38224;50.950;4.100;2023-01-10T10:38:16;34.17;;;5.38;;
52268;SDS011;38224;50.950;4.100;2023-01-10T10:40:43;33.50;;;5.57;;
52268;SDS011;38224;50.950;4.100;2023-01-10T10:43:20;25.60;;;4.78;;
52268;SDS011;38224;50.950;4.100;2023-01-10T10:45:49;25.85;;;4.78;;
52268;SDS011;38224;50.950;4.100;2023-01-10T10:50:49;32.65;;;5.80;;
52268;SDS011;38224;50.950;4.100;2023-01-10T10:53:15;31.48;;;4.80;;
52268;SDS011;38224;50.950;4.100;2023-01-10T10:55:43;21.20;;;5.93;;
52268;SDS011;38224;50.950;4.100;2023-01-10T10:58:08;33.67;;;5.15;;
52268;SDS011;38224;50.950;4.100;2023-01-10T11:00:35;37.92;;;6.03;;
52268;SDS011;38224;50.950;4.100;2023-01-10T11:03:04;30.42;;;4.57;;
52268;SDS011;38224;50.950;4.100;2023-01-10T11:05:34;33.67;;;4.82;;
52268;SDS011;38224;50.950;4.100;2023-01-10T11:08:02;35.45;;;5.32;;
52268;SDS011;38224;50.950;4.100;2023-01-10T11:10:37;31.38;;;5.00;;
52268;SDS011;38224;50.950;4.100;2023-01-10T11:15:44;28.50;;;4.60;;
52268;SDS011;38224;50.950;4.100;2023-01-10T11:20:35;35.35;;;4.22;;
52268;SDS011;38224;50.950;4.100;2023-01-10T11:23:01;32.72;;;4.90;;
52268;SDS011;38224;50.950;4.100;2023-01-10T11:25:27;40.30;;;6.22;;
52268;SDS011;38224;50.950;4.100;2023-01-10T11:27:53;22.30;;;4.57;;
52268;SDS011;38224;50.950;4.100;2023-01-10T11:30:22;26.52;;;4.82;;
52268;SDS011;38224;50.950;4.100;2023-01-10T11:32:53;43.88;;;6.30;;
52268;SDS011;38224;50.950;4.100;2023-01-10T11:35:20;30.75;;;5.32;;
52268;SDS011;38224;50.950;4.100;2023-01-10T11:37:57;27.65;;;5.03;;
52268;SDS011;38224;50.950;4.100;2023-01-10T11:40:24;27.63;;;5.25;;
52268;SDS011;38224;50.950;4.100;2023-01-10T11:42:50;26.75;;;5.50;;
52268;SDS011;38224;50.950;4.100;2023-01-10T11:47:42;28.50;;;4.60;;
52268;SDS011;38224;50.950;4.100;2023-01-10T11:50:08;26.67;;;4.70;;
52268;SDS011;38224;50.950;4.100;2023-01-10T11:52:33;35.50;;;5.65;;
52268;SDS011;38224;50.950;4.100;2023-01-10T11:54:58;29.83;;;4.45;;
52268;SDS011;38224;50.950;4.100;2023-01-10T11:57:25;29.02;;;5.05;;
52268;SDS011;38224;50.950;4.100;2023-01-10T11:59:52;37.47;;;6.03;;
52268;SDS011;38224;50.950;4.100;2023-01-10T12:04:47;31.85;;;5.13;;
52268;SDS011;38224;50.950;4.100;2023-01-10T12:07:13;23.75;;;4.00;;
52268;SDS011;38224;50.950;4.100;2023-01-10T12:09:42;27.88;;;4.93;;
52268;SDS011;38224;50.950;4.100;2023-01-10T12:12:21;31.42;;;5.00;;
52268;SDS011;38224;50.950;4.100;2023-01-10T12:14:47;29.50;;;4.45;;
52268;SDS011;38224;50.950;4.100;2023-01-10T12:19:44;32.85;;;4.85;;
52268;SDS011;38224;50.950;4.100;2023-01-10T12:22:10;43.60;;;5.73;;
52268;SDS011;38224;50.950;4.100;2023-01-10T12:24:36;28.23;;;5.10;;
52268;SDS011;38224;50.950;4.100;2023-01-10T12:27:03;29.77;;;4.97;;
52268;SDS011;38224;50.950;4.100;2023-01-10T12:29:36;17.33;;;4.13;;
52268;SDS011;38224;50.950;4.100;2023-01-10T12:32:04;32.40;;;5.80;;
52268;SDS011;38224;50.950;4.100;2023-01-10T12:34:42;29.45;;;4.43;;
52268;SDS011;38224;50.950;4.100;2023-01-10T12:39:47;32.03;;;5.45;;
52268;SDS011;38224;50.950;4.100;2023-01-10T12:42:18;35.45;;;6.13;;
52268;SDS011;38224;50.950;4.100;2023-01-10T12:45:27;30.30;;;5.43;;
52268;SDS011;38224;50.950;4.100;2023-01-10T12:48:01;33.47;;;5.55;;
52268;SDS011;38224;50.950;4.100;2023-01-10T12:50:28;33.25;;;4.72;;
52268;SDS011;38224;50.950;4.100;2023-01-10T12:55:26;22.73;;;5.57;;
52268;SDS011;38224;50.950;4.100;2023-01-10T12:57:54;23.85;;;4.32;;
52268;SDS011;38224;50.950;4.100;2023-01-10T13:00:22;32.75;;;5.78;;
52268;SDS011;38224;50.950;4.100;2023-01-10T13:02:48;34.35;;;7.78;;
52268;SDS011;38224;50.950;4.100;2023-01-10T13:05:22;21.88;;;5.28;;
52268;SDS011;38224;50.950;4.100;2023-01-10T13:10:14;25.50;;;4.78;;
52268;SDS011;38224;50.950;4.100;2023-01-10T13:12:41;22.33;;;4.05;;
52268;SDS011;38224;50.950;4.100;2023-01-10T13:15:11;35.00;;;5.18;;
52268;SDS011;38224;50.950;4.100;2023-01-10T13:17:44;26.65;;;4.10;;
52268;SDS011;38224;50.950;4.100;2023-01-10T13:22:46;22.95;;;4.03;;
52268;SDS011;38224;50.950;4.100;2023-01-10T13:27:47;21.17;;;4.25;;
52268;SDS011;38224;50.950;4.100;2023-01-10T13:30:37;17.95;;;4.03;;
52268;SDS011;38224;50.950;4.100;2023-01-10T13:35:39;33.13;;;4.72;;
52268;SDS011;38224;50.950;4.100;2023-01-10T13:38:06;13.20;;;4.25;;
52268;SDS011;38224;50.950;4.100;2023-01-10T13:40:39;28.30;;;4.18;;
52268;SDS011;38224;50.950;4.100;2023-01-10T13:43:24;18.58;;;4.30;;
52268;SDS011;38224;50.950;4.100;2023-01-10T13:48:37;15.73;;;3.72;;
52268;SDS011;38224;50.950;4.100;2023-01-10T13:51:05;18.83;;;4.00;;
52268;SDS011;38224;50.950;4.100;2023-01-10T13:55:56;28.25;;;4.70;;
52268;SDS011;38224;50.950;4.100;2023-01-10T14:04:30;20.88;;;5.38;;
52268;SDS011;38224;50.950;4.100;2023-01-10T14:07:19;21.10;;;5.10;;
52268;SDS011;38224;50.950;4.100;2023-01-10T14:09:46;15.60;;;4.20;;
52268;SDS011;38224;50.950;4.100;2023-01-10T14:12:16;22.08;;;4.75;;
52268;SDS011;38224;50.950;4.100;2023-01-10T14:14:48;26.50;;;5.35;;
52268;SDS011;38224;50.950;4.100;2023-01-10T14:19:43;23.85;;;5.85;;
52268;SDS011;38224;50.950;4.100;2023-01-10T14:22:20;20.67;;;3.97;;
52268;SDS011;38224;50.950;4.100;2023-01-10T14:24:49;18.15;;;4.15;;
52268;SDS011;38224;50.950;4.100;2023-01-10T14:27:15;20.85;;;4.00;;
52268;SDS011;38224;50.950;4.100;2023-01-10T14:29:45;17.95;;;4.20;;
52268;SDS011;38224;50.950;4.100;2023-01-10T14:32:17;14.45;;;3.90;;
52268;SDS011;38224;50.950;4.100;2023-01-10T14:34:48;15.57;;;3.42;;
52268;SDS011;38224;50.950;4.100;2023-01-10T14:37:26;16.70;;;5.13;;
52268;SDS011;38224;50.950;4.100;2023-01-10T14:39:53;18.20;;;3.92;;
52268;SDS011;38224;50.950;4.100;2023-01-10T14:42:20;16.95;;;4.43;;
52268;SDS011;38224;50.950;4.100;2023-01-10T14:44:50;12.30;;;3.30;;
52268;SDS011;38224;50.950;4.100;2023-01-10T14:47:39;17.50;;;3.30;;
52268;SDS011;38224;50.950;4.100;2023-01-10T14:50:03;16.45;;;3.22;;
52268;SDS011;38224;50.950;4.100;2023-01-10T14:52:30;10.15;;;3.08;;
52268;SDS011;38224;50.950;4.100;2023-01-10T14:55:03;10.10;;;3.47;;
52268;SDS011;38224;50.950;4.100;2023-01-10T14:57:30;11.68;;;3.22;;
52268;SDS011;38224;50.950;4.100;2023-01-10T15:00:11;10.95;;;3.10;;
52268;SDS011;38224;50.950;4.100;2023-01-10T15:02:37;9.68;;;2.75;;
52268;SDS011;38224;50.950;4.100;2023-01-10T15:05:10;14.77;;;3.25;;
52268;SDS011;38224;50.950;4.100;2023-01-10T15:07:39;8.13;;;2.70;;
52268;SDS011;38224;50.950;4.100;2023-01-10T15:10:14;8.93;;;2.67;;
52268;SDS011;38224;50.950;4.100;2023-01-10T15:12:41;10.02;;;2.75;;
52268;SDS011;38224;50.950;4.100;2023-01-10T15:15:12;3.60;;;2.78;;
52268;SDS011;38224;50.950;4.100;2023-01-10T15:17:39;7.38;;;2.47;;
52268;SDS011;38224;50.950;4.100;2023-01-10T15:20:05;6.82;;;3.30;;
52268;SDS011;38224;50.950;4.100;2023-01-10T15:22:31;8.50;;;2.97;;
52268;SDS011;38224;50.950;4.100;2023-01-10T15:25:01;6.28;;;2.80;;
52268;SDS011;38224;50.950;4.100;2023-01-10T15:27:26;5.07;;;1.92;;
52268;SDS011;38224;50.950;4.100;2023-01-10T15:29:52;5.50;;;2.83;;
52268;SDS011;38224;50.950;4.100;2023-01-10T15:32:33;8.25;;;2.95;;
52268;SDS011;38224;50.950;4.100;2023-01-10T15:35:02;6.60;;;2.40;;
52268;SDS011;38224;50.950;4.100;2023-01-10T15:37:29;8.38;;;3.00;;
52268;SDS011;38224;50.950;4.100;2023-01-10T15:39:58;4.57;;;2.28;;
52268;SDS011;38224;50.950;4.100;2023-01-10T15:42:23;7.53;;;2.60;;
52268;SDS011;38224;50.950;4.100;2023-01-10T15:44:49;7.07;;;2.70;;
52268;SDS011;38224;50.950;4.100;2023-01-10T15:49:52;3.28;;;2.03;;
52268;SDS011;38224;50.950;4.100;2023-01-10T15:52:21;4.40;;;2.40;;
52268;SDS011;38224;50.950;4.100;2023-01-10T15:54:46;5.28;;;2.75;;
52268;SDS011;38224;50.950;4.100;2023-01-10T15:57:18;3.08;;;1.50;;
52268;SDS011;38224;50.950;4.100;2023-01-10T15:59:48;2.97;;;2.08;;
52268;SDS011;38224;50.950;4.100;2023-01-10T16:04:46;5.40;;;2.92;;
52268;SDS011;38224;50.950;4.100;2023-01-10T16:07:29;3.35;;;2.20;;
52268;SDS011;38224;50.950;4.100;2023-01-10T16:12:27;2.88;;;2.10;;
52268;SDS011;38224;50.950;4.100;2023-01-10T16:15:17;2.38;;;1.88;;
52268;SDS011;38224;50.950;4.100;2023-01-10T16:17:43;2.63;;;1.90;;
52268;SDS011;38224;50.950;4.100;2023-01-10T16:20:11;2.95;;;1.98;;
52268;SDS011;38224;50.950;4.100;2023-01-10T16:22:36;2.47;;;1.95;;
52268;SDS011;38224;50.950;4.100;2023-01-10T16:25:03;3.97;;;2.40;;
52268;SDS011;38224;50.950;4.100;2023-01-10T16:27:28;3.90;;;2.10;;
52268;SDS011;38224;50.950;4.100;2023-01-10T16:29:54;5.53;;;2.78;;
52268;SDS011;38224;50.950;4.100;2023-01-10T16:32:20;3.00;;;2.38;;
52268;SDS011;38224;50.950;4.100;2023-01-10T16:34:45;4.15;;;2.33;;
52268;SDS011;38224;50.950;4.100;2023-01-10T16:37:11;4.75;;;2.53;;